Bolingbrook, Illinois
Current Conditions -  °F | °C
As of 10:35 PM on Saturday 22 Nov 2014 (Local Time) from KLOT Reporting Station
Overcast Overcast  
Wind Chill: 52°   Ceiling: 2200
Heat Index: 52°   Visibility: 10mi
Dew Point: 46°   Wind: 20mph
Humidity: 81%   Direction: 210°SSW
Pressure: 29.84"   Gusts: 26mph
Location:  41.7°N, 88.08°W
Report Text: KLOT 230435Z AUTO 21017G23KT 10SM OVC022 11/08 A2984 RMK AO2 T01100078
Loading
Personal Weather Stations






























Interactive Weather Map New forecast layout! Learn more

10-Day Weather Forecast

Advertisements
Track Severe Weather on mobile